Time;durP1;ratioP1;P1;durP2;ratioP2;P2;SDS_P1;SDS_P2;PMS_P1;PMS_P2;Temp;Humidity;BMP_temperature;BMP_pressure;BME280_temperature;BME280_humidity;BME280_pressure;Samples;Min_cycle;Max_cycle;Signal;HPM_P1;HPM_P2
2022/04/25 00:00:29;;;;;;;25.80;23.20;;;;;;;;;;5083129;28;24461;-48
2022/04/25 00:02:55;;;;;;;26.38;23.65;;;;;;;;;;5086592;28;24513;-48
2022/04/25 00:05:20;;;;;;;27.25;24.45;;;;;;;;;;5081969;28;24480;-48
2022/04/25 00:07:46;;;;;;;24.45;21.95;;;;;;;;;;5083615;28;24552;-48
2022/04/25 00:10:11;;;;;;;25.95;23.35;;;;;;;;;;5082631;28;24968;-47
2022/04/25 00:12:36;;;;;;;23.98;21.65;;;;;;;;;;5075702;28;24453;-46
2022/04/25 00:15:01;;;;;;;25.00;22.60;;;;;;;;;;5078600;28;24441;-46
2022/04/25 00:17:27;;;;;;;23.50;21.30;;;;;;;;;;5080582;28;25249;-46
2022/04/25 00:19:52;;;;;;;24.17;21.77;;;;;;;;;;5082667;28;24630;-46
2022/04/25 00:22:17;;;;;;;22.38;20.35;;;;;;;;;;5085927;28;24421;-46
2022/04/25 00:24:44;;;;;;;24.53;22.07;;;;;;;;;;5081156;28;24959;-46
2022/04/25 00:27:09;;;;;;;23.40;20.95;;;;;;;;;;5085259;28;25263;-47
2022/04/25 00:29:35;;;;;;;20.77;18.77;;;;;;;;;;5082710;28;24442;-47
2022/04/25 00:32:00;;;;;;;20.40;18.50;;;;;;;;;;5084632;28;24792;-46
2022/04/25 00:34:25;;;;;;;19.47;17.77;;;;;;;;;;5079699;28;24529;-47
2022/04/25 00:36:50;;;;;;;20.02;18.15;;;;;;;;;;5084091;28;25046;-47
2022/04/25 00:39:15;;;;;;;21.30;19.20;;;;;;;;;;5081527;28;25186;-47
2022/04/25 00:41:42;;;;;;;21.98;19.88;;;;;;;;;;5084415;28;24418;-46
2022/04/25 00:44:07;;;;;;;19.05;17.25;;;;;;;;;;5084751;28;24437;-46
2022/04/25 00:46:35;;;;;;;20.03;18.13;;;;;;;;;;5082061;28;24434;-47
2022/04/25 00:49:00;;;;;;;19.20;17.40;;;;;;;;;;5081382;28;25207;-46
2022/04/25 00:51:26;;;;;;;21.45;19.42;;;;;;;;;;5084306;28;24420;-46
2022/04/25 00:53:51;;;;;;;20.70;18.70;;;;;;;;;;5084595;28;24482;-46
2022/04/25 00:56:17;;;;;;;21.60;19.48;;;;;;;;;;5085254;28;24433;-47
2022/04/25 00:58:43;;;;;;;22.45;20.25;;;;;;;;;;5083512;28;24449;-48
2022/04/25 01:01:08;;;;;;;19.05;17.15;;;;;;;;;;5083534;28;24414;-47
2022/04/25 01:03:33;;;;;;;20.20;18.10;;;;;;;;;;5082539;28;24829;-46
2022/04/25 01:05:58;;;;;;;19.50;17.60;;;;;;;;;;5084281;28;24464;-50
2022/04/25 01:08:23;;;;;;;18.43;16.57;;;;;;;;;;5084795;28;24424;-52
2022/04/25 01:10:49;;;;;;;18.20;16.50;;;;;;;;;;5085047;28;24503;-47
2022/04/25 01:13:14;;;;;;;18.75;17.05;;;;;;;;;;5083851;28;24447;-47
2022/04/25 01:15:39;;;;;;;19.20;17.37;;;;;;;;;;5083878;28;24533;-47
2022/04/25 01:18:04;;;;;;;18.30;16.60;;;;;;;;;;5086303;28;24543;-53
2022/04/25 01:20:30;;;;;;;18.40;16.70;;;;;;;;;;5085042;28;24999;-47
2022/04/25 01:28:32;;;;;;;18.27;16.58;;;;;;;;;;5079290;28;24550;-47
2022/04/25 01:30:57;;;;;;;19.17;17.27;;;;;;;;;;5083507;28;24853;-47
2022/04/25 01:33:22;;;;;;;19.33;17.43;;;;;;;;;;5084097;28;24437;-47
2022/04/25 01:35:48;;;;;;;19.33;17.42;;;;;;;;;;5083160;28;24996;-47
2022/04/25 01:38:13;;;;;;;19.40;17.58;;;;;;;;;;5084094;28;24445;-47
2022/04/25 01:40:38;;;;;;;19.67;17.88;;;;;;;;;;5083101;28;24444;-47
2022/04/25 01:43:03;;;;;;;18.23;16.43;;;;;;;;;;5083525;28;24413;-47
2022/04/25 01:45:28;;;;;;;20.00;18.00;;;;;;;;;;5083857;28;24425;-46
2022/04/25 01:47:53;;;;;;;17.92;16.23;;;;;;;;;;5084980;28;24429;-47
2022/04/25 01:50:19;;;;;;;18.15;16.45;;;;;;;;;;5083691;28;24428;-47
2022/04/25 01:52:45;;;;;;;18.87;16.97;;;;;;;;;;5084884;28;24426;-47
2022/04/25 01:55:10;;;;;;;16.20;14.55;;;;;;;;;;5084881;28;24479;-47
2022/04/25 01:57:35;;;;;;;18.50;16.60;;;;;;;;;;5084236;28;24423;-47
2022/04/25 02:00:00;;;;;;;17.67;15.95;;;;;;;;;;5082921;28;24414;-47
2022/04/25 02:02:25;;;;;;;20.67;18.38;;;;;;;;;;5086833;28;24418;-47
2022/04/25 02:04:51;;;;;;;18.80;17.00;;;;;;;;;;5086249;28;24512;-47
2022/04/25 02:07:16;;;;;;;16.97;15.30;;;;;;;;;;5086348;28;24430;-47
2022/04/25 02:09:41;;;;;;;18.90;17.10;;;;;;;;;;5087345;28;24426;-47
2022/04/25 02:12:07;;;;;;;16.07;14.47;;;;;;;;;;5084798;28;24952;-47
2022/04/25 02:14:32;;;;;;;18.02;16.20;;;;;;;;;;5089059;28;24467;-46
2022/04/25 02:17:00;;;;;;;19.77;17.83;;;;;;;;;;5085117;28;24498;-47
2022/04/25 02:19:26;;;;;;;17.73;16.02;;;;;;;;;;5084662;28;24517;-47
2022/04/25 02:21:51;;;;;;;20.50;18.40;;;;;;;;;;5086714;28;24528;-47
2022/04/25 02:24:16;;;;;;;19.35;17.45;;;;;;;;;;5087124;28;24992;-46
2022/04/25 02:26:42;;;;;;;18.08;16.38;;;;;;;;;;5084857;28;24429;-47
2022/04/25 02:29:07;;;;;;;18.35;16.65;;;;;;;;;;5089260;28;24847;-47
2022/04/25 02:31:32;;;;;;;21.40;19.30;;;;;;;;;;5085903;28;24418;-47
2022/04/25 02:33:57;;;;;;;21.03;18.93;;;;;;;;;;5086392;28;24895;-47
2022/04/25 02:36:24;;;;;;;19.80;17.90;;;;;;;;;;5086389;28;24914;-48
2022/04/25 02:38:49;;;;;;;18.05;16.35;;;;;;;;;;5085254;28;24423;-48
2022/04/25 02:41:15;;;;;;;18.90;17.20;;;;;;;;;;5081770;28;24423;-48
2022/04/25 02:43:41;;;;;;;19.67;17.77;;;;;;;;;;5085391;28;24513;-47
2022/04/25 02:46:07;;;;;;;19.05;17.15;;;;;;;;;;5085177;28;24800;-47
2022/04/25 02:48:33;;;;;;;18.80;17.10;;;;;;;;;;5086589;28;24421;-48
2022/04/25 02:50:59;;;;;;;19.33;17.52;;;;;;;;;;5079407;28;24429;-48
2022/04/25 02:53:24;;;;;;;18.10;16.40;;;;;;;;;;5087685;28;24467;-48
2022/04/25 02:55:53;;;;;;;20.13;18.17;;;;;;;;;;5083343;28;25011;-48
2022/04/25 02:58:21;;;;;;;17.25;15.75;;;;;;;;;;5086626;28;25027;-48
2022/04/25 03:00:47;;;;;;;19.33;17.42;;;;;;;;;;5077048;28;25283;-47
2022/04/25 03:03:13;;;;;;;18.30;16.60;;;;;;;;;;5087750;28;24564;-47
2022/04/25 03:05:39;;;;;;;19.27;17.48;;;;;;;;;;5081979;28;24525;-48
2022/04/25 03:08:05;;;;;;;17.40;15.90;;;;;;;;;;5086250;28;24777;-48
2022/04/25 03:10:30;;;;;;;18.17;16.47;;;;;;;;;;5084130;28;24429;-47
2022/04/25 03:12:55;;;;;;;17.17;15.67;;;;;;;;;;5084726;28;24429;-47
2022/04/25 03:15:20;;;;;;;19.05;17.35;;;;;;;;;;5085547;28;24500;-48
2022/04/25 03:17:45;;;;;;;20.67;18.63;;;;;;;;;;5086208;28;24414;-48
2022/04/25 03:20:10;;;;;;;18.20;16.50;;;;;;;;;;5077011;28;24426;-47
2022/04/25 03:22:36;;;;;;;19.47;17.63;;;;;;;;;;5085580;28;24419;-47
2022/04/25 03:25:01;;;;;;;17.95;16.35;;;;;;;;;;5074840;28;24426;-47
2022/04/25 03:27:26;;;;;;;20.40;18.50;;;;;;;;;;5083687;28;24799;-47
2022/04/25 03:29:51;;;;;;;18.85;17.15;;;;;;;;;;5085086;28;24450;-47
2022/04/25 03:32:16;;;;;;;18.02;16.42;;;;;;;;;;5084638;28;24446;-47
2022/04/25 03:34:41;;;;;;;18.55;16.88;;;;;;;;;;5086179;28;24437;-47
2022/04/25 03:37:07;;;;;;;19.97;18.07;;;;;;;;;;5085376;28;25887;-48
2022/04/25 03:39:32;;;;;;;18.55;16.75;;;;;;;;;;5083902;28;24411;-48
2022/04/25 03:41:57;;;;;;;19.30;17.58;;;;;;;;;;5085460;28;24418;-47
2022/04/25 03:44:22;;;;;;;20.83;18.83;;;;;;;;;;5086237;28;24967;-47
2022/04/25 03:46:47;;;;;;;21.25;19.17;;;;;;;;;;5086457;28;24624;-48
2022/04/25 03:49:13;;;;;;;18.30;16.60;;;;;;;;;;5086115;28;24468;-47
2022/04/25 03:51:38;;;;;;;19.27;17.45;;;;;;;;;;5081669;28;24445;-47
2022/04/25 03:54:04;;;;;;;18.95;17.25;;;;;;;;;;5083530;28;24964;-48
2022/04/25 03:59:13;;;;;;;21.15;19.10;;;;;;;;;;5086352;28;25036;-47
2022/04/25 04:01:38;;;;;;;19.57;17.70;;;;;;;;;;5085450;28;24430;-47
2022/04/25 04:04:05;;;;;;;21.40;19.40;;;;;;;;;;5085304;28;24426;-48
2022/04/25 04:06:31;;;;;;;19.75;17.85;;;;;;;;;;5084706;28;24414;-48
2022/04/25 04:08:56;;;;;;;19.45;17.65;;;;;;;;;;5084968;28;24430;-47
2022/04/25 04:11:22;;;;;;;19.20;17.50;;;;;;;;;;5081412;28;24417;-47
2022/04/25 04:13:47;;;;;;;20.48;18.58;;;;;;;;;;5084599;28;24415;-48
2022/04/25 04:16:12;;;;;;;22.23;20.03;;;;;;;;;;5084172;28;24422;-47
2022/04/25 04:18:40;;;;;;;21.73;19.53;;;;;;;;;;5086664;28;24424;-47
2022/04/25 04:21:05;;;;;;;20.35;18.45;;;;;;;;;;5085710;28;24429;-47
2022/04/25 04:23:31;;;;;;;22.67;20.27;;;;;;;;;;5081308;28;24414;-47
2022/04/25 04:25:56;;;;;;;22.70;20.38;;;;;;;;;;5082570;28;24521;-47
2022/04/25 04:28:21;;;;;;;20.35;18.55;;;;;;;;;;5084630;28;24843;-47
2022/04/25 04:30:46;;;;;;;21.80;19.70;;;;;;;;;;5084090;28;24460;-47
2022/04/25 04:33:11;;;;;;;21.30;19.20;;;;;;;;;;5086093;28;24531;-48
2022/04/25 04:38:20;;;;;;;20.88;18.85;;;;;;;;;;5083407;28;24883;-47
2022/04/25 04:40:45;;;;;;;20.60;18.70;;;;;;;;;;5079105;28;24964;-47
2022/04/25 04:43:11;;;;;;;20.42;18.52;;;;;;;;;;5082701;28;24529;-47
2022/04/25 04:45:37;;;;;;;18.48;16.67;;;;;;;;;;5080071;28;24430;-47
2022/04/25 04:48:02;;;;;;;17.35;15.75;;;;;;;;;;5080631;28;24418;-48
2022/04/25 04:50:27;;;;;;;18.03;16.33;;;;;;;;;;5083223;28;24426;-47
2022/04/25 04:52:56;;;;;;;18.70;16.90;;;;;;;;;;5077792;28;24522;-47
2022/04/25 04:55:22;;;;;;;17.30;15.70;;;;;;;;;;5083274;28;24755;-47
2022/04/25 04:57:47;;;;;;;17.73;15.90;;;;;;;;;;5082041;28;25007;-47
2022/04/25 05:00:16;;;;;;;18.30;16.60;;;;;;;;;;5083596;28;24398;-47
2022/04/25 05:02:41;;;;;;;21.20;19.10;;;;;;;;;;5080845;28;24647;-49
2022/04/25 05:05:07;;;;;;;17.90;16.20;;;;;;;;;;5080676;28;25050;-48
2022/04/25 05:07:32;;;;;;;18.23;16.42;;;;;;;;;;5079884;28;24413;-48
2022/04/25 05:09:57;;;;;;;19.27;17.37;;;;;;;;;;5078477;28;24483;-48
2022/04/25 05:12:23;;;;;;;16.70;15.10;;;;;;;;;;5084192;28;24791;-48
2022/04/25 05:14:48;;;;;;;20.13;18.00;;;;;;;;;;5083100;28;24476;-48
2022/04/25 05:17:13;;;;;;;21.20;19.00;;;;;;;;;;5080754;28;24489;-48
2022/04/25 05:19:38;;;;;;;20.17;17.97;;;;;;;;;;5073833;28;24407;-48
2022/04/25 05:22:03;;;;;;;20.88;18.88;;;;;;;;;;5071124;28;24489;-48
2022/04/25 05:24:28;;;;;;;22.38;19.92;;;;;;;;;;5082605;28;24562;-48
2022/04/25 05:26:54;;;;;;;22.63;20.43;;;;;;;;;;5082380;28;24434;-48
2022/04/25 05:29:19;;;;;;;21.48;19.38;;;;;;;;;;5086385;28;24441;-48
2022/04/25 05:31:44;;;;;;;22.42;19.02;;;;;;;;;;5086633;28;24386;-48
2022/04/25 05:34:09;;;;;;;21.03;18.87;;;;;;;;;;5087000;28;24375;-48
2022/04/25 05:36:35;;;;;;;23.33;20.97;;;;;;;;;;5088526;28;24883;-48
2022/04/25 05:39:00;;;;;;;22.30;20.07;;;;;;;;;;5089601;28;25016;-48
2022/04/25 05:41:25;;;;;;;21.17;18.90;;;;;;;;;;5090549;28;24396;-48
2022/04/25 05:43:50;;;;;;;22.13;19.93;;;;;;;;;;5090238;28;24488;-48
2022/04/25 05:46:15;;;;;;;22.70;20.20;;;;;;;;;;5090238;28;24745;-48
2022/04/25 05:54:08;;;;;;;22.77;20.48;;;;;;;;;;5090184;28;24393;-48
2022/04/25 05:56:33;;;;;;;21.95;19.75;;;;;;;;;;5084994;28;24967;-48
2022/04/25 05:58:58;;;;;;;21.02;19.00;;;;;;;;;;5077598;28;24410;-48
2022/04/25 06:01:24;;;;;;;19.00;17.10;;;;;;;;;;5083861;28;25601;-48
2022/04/25 06:03:49;;;;;;;23.80;20.50;;;;;;;;;;5088841;28;24879;-47
2022/04/25 06:06:14;;;;;;;21.17;18.88;;;;;;;;;;5088495;28;24483;-48
2022/04/25 06:08:39;;;;;;;22.47;20.30;;;;;;;;;;5086182;28;24415;-48
2022/04/25 06:11:04;;;;;;;21.90;19.60;;;;;;;;;;5081505;28;24427;-48
2022/04/25 06:13:30;;;;;;;21.43;19.33;;;;;;;;;;5088650;28;24514;-49
2022/04/25 06:15:55;;;;;;;21.30;19.20;;;;;;;;;;5087352;28;24438;-49
2022/04/25 06:18:20;;;;;;;20.07;18.17;;;;;;;;;;5087296;28;24410;-48
2022/04/25 06:20:45;;;;;;;19.27;17.47;;;;;;;;;;5088897;28;24422;-49
2022/04/25 06:23:10;;;;;;;21.58;19.38;;;;;;;;;;5087916;28;24551;-49
2022/04/25 06:25:38;;;;;;;20.23;18.20;;;;;;;;;;5087130;28;24414;-48
2022/04/25 06:28:04;;;;;;;19.88;17.88;;;;;;;;;;5085908;28;25152;-48
2022/04/25 06:30:30;;;;;;;21.38;19.17;;;;;;;;;;5088663;28;24429;-48
2022/04/25 06:32:55;;;;;;;23.27;21.08;;;;;;;;;;5088929;28;24987;-48
2022/04/25 06:35:20;;;;;;;18.20;16.50;;;;;;;;;;5087317;28;24811;-48
2022/04/25 06:37:46;;;;;;;23.47;21.27;;;;;;;;;;5086293;28;24418;-48
2022/04/25 06:40:11;;;;;;;21.03;19.00;;;;;;;;;;5084662;28;24421;-48
2022/04/25 06:42:36;;;;;;;19.83;17.93;;;;;;;;;;5085428;28;24418;-48
2022/04/25 06:45:02;;;;;;;20.58;18.58;;;;;;;;;;5086747;28;24849;-48
2022/04/25 06:47:27;;;;;;;20.50;18.60;;;;;;;;;;5085203;28;24956;-48
2022/04/25 06:49:54;;;;;;;21.25;19.15;;;;;;;;;;5087175;28;24451;-48
2022/04/25 06:52:20;;;;;;;19.70;17.90;;;;;;;;;;5089368;28;24413;-48
2022/04/25 06:54:46;;;;;;;19.83;17.73;;;;;;;;;;5088872;28;24475;-49
2022/04/25 06:57:11;;;;;;;21.20;19.00;;;;;;;;;;5088970;28;24462;-63
2022/04/25 06:59:36;;;;;;;21.20;19.10;;;;;;;;;;5089076;28;24399;-60
2022/04/25 07:02:01;;;;;;;20.10;18.10;;;;;;;;;;5089138;28;24378;-48
2022/04/25 07:04:26;;;;;;;21.13;19.00;;;;;;;;;;5088851;28;24437;-48
2022/04/25 07:06:51;;;;;;;22.42;20.02;;;;;;;;;;5089236;28;24494;-48
2022/04/25 07:09:17;;;;;;;23.80;21.50;;;;;;;;;;5088948;28;24448;-48
2022/04/25 07:11:43;;;;;;;22.97;19.30;;;;;;;;;;5088885;28;24897;-48
2022/04/25 07:14:09;;;;;;;22.67;20.30;;;;;;;;;;5088201;28;24487;-48
2022/04/25 07:16:34;;;;;;;22.70;20.50;;;;;;;;;;5088943;28;24409;-48
2022/04/25 07:19:00;;;;;;;20.33;18.33;;;;;;;;;;5088578;28;24419;-48
2022/04/25 07:29:37;;;;;;;25.53;22.83;;;;;;;;;;5087907;28;24618;-48
2022/04/25 07:32:02;;;;;;;22.05;19.80;;;;;;;;;;5088838;28;24428;-50
2022/04/25 07:34:27;;;;;;;22.57;20.17;;;;;;;;;;5088168;28;24398;-48
2022/04/25 07:36:53;;;;;;;21.60;19.50;;;;;;;;;;5088458;28;24863;-48
2022/04/25 07:39:18;;;;;;;20.90;18.90;;;;;;;;;;5088333;28;24405;-48
2022/04/25 07:41:44;;;;;;;24.13;21.53;;;;;;;;;;5088516;28;24966;-48
2022/04/25 07:44:10;;;;;;;20.87;18.77;;;;;;;;;;5088166;28;24808;-48
2022/04/25 07:46:36;;;;;;;22.63;20.27;;;;;;;;;;5088091;28;24509;-48
2022/04/25 07:49:01;;;;;;;20.53;18.40;;;;;;;;;;5085353;28;24509;-48
2022/04/25 07:51:26;;;;;;;23.97;21.00;;;;;;;;;;5087924;28;25313;-48
2022/04/25 07:53:51;;;;;;;21.93;19.63;;;;;;;;;;5088112;28;24978;-48
2022/04/25 07:56:17;;;;;;;23.03;20.77;;;;;;;;;;5087808;28;24426;-48
2022/04/25 07:58:42;;;;;;;24.33;21.77;;;;;;;;;;5087537;28;24473;-48
2022/04/25 08:01:07;;;;;;;26.67;23.77;;;;;;;;;;5087425;28;24467;-48
2022/04/25 08:03:35;;;;;;;22.90;20.57;;;;;;;;;;5087424;28;24464;-48
2022/04/25 08:06:00;;;;;;;23.55;20.92;;;;;;;;;;5087770;28;24393;-48
2022/04/25 08:08:25;;;;;;;26.10;23.50;;;;;;;;;;5088056;28;24485;-48
2022/04/25 08:10:50;;;;;;;22.23;19.92;;;;;;;;;;5087895;28;24383;-48
2022/04/25 08:18:43;;;;;;;19.25;17.35;;;;;;;;;;5087685;28;24502;-48
2022/04/25 08:21:08;;;;;;;20.40;18.30;;;;;;;;;;5087734;28;24477;-48
2022/04/25 08:23:33;;;;;;;19.20;17.40;;;;;;;;;;5087457;28;24456;-48
2022/04/25 08:25:58;;;;;;;18.80;17.20;;;;;;;;;;5087075;28;24892;-48
2022/04/25 08:28:25;;;;;;;20.30;18.30;;;;;;;;;;5087572;28;24430;-48
2022/04/25 08:30:51;;;;;;;17.33;15.82;;;;;;;;;;5087616;28;24378;-48
2022/04/25 08:33:17;;;;;;;18.88;17.08;;;;;;;;;;5087161;28;24489;-48
2022/04/25 08:35:42;;;;;;;18.87;16.97;;;;;;;;;;5085686;28;24509;-48
2022/04/25 08:38:07;;;;;;;20.27;18.27;;;;;;;;;;5087034;28;24390;-48
2022/04/25 08:40:32;;;;;;;19.05;17.25;;;;;;;;;;5087436;28;24408;-48
2022/04/25 08:42:58;;;;;;;17.87;16.17;;;;;;;;;;5087213;28;24389;-48
2022/04/25 08:45:23;;;;;;;22.10;20.10;;;;;;;;;;5086575;28;24474;-48
2022/04/25 08:47:52;;;;;;;18.00;16.20;;;;;;;;;;5085901;28;24901;-48
2022/04/25 08:50:17;;;;;;;18.35;16.75;;;;;;;;;;5087313;28;24409;-48
2022/04/25 08:52:43;;;;;;;18.20;16.50;;;;;;;;;;5086930;28;24398;-48
2022/04/25 08:55:09;;;;;;;17.55;15.90;;;;;;;;;;5086925;28;24393;-48
2022/04/25 08:57:35;;;;;;;18.45;16.75;;;;;;;;;;5083170;28;24438;-48
2022/04/25 09:00:04;;;;;;;21.08;19.08;;;;;;;;;;5086616;28;24456;-48
2022/04/25 09:02:29;;;;;;;18.45;16.65;;;;;;;;;;5086914;28;24963;-48
2022/04/25 09:04:54;;;;;;;19.40;17.40;;;;;;;;;;5087403;28;24386;-48
2022/04/25 09:07:19;;;;;;;19.33;17.60;;;;;;;;;;5084792;28;24510;-48
2022/04/25 09:09:45;;;;;;;19.17;17.37;;;;;;;;;;5087887;28;24463;-48
2022/04/25 09:12:11;;;;;;;18.65;16.95;;;;;;;;;;5091218;28;24916;-47
2022/04/25 09:14:37;;;;;;;19.08;17.38;;;;;;;;;;5091087;28;24946;-48
2022/04/25 09:17:03;;;;;;;20.05;18.25;;;;;;;;;;5074355;28;24514;-48
2022/04/25 09:19:29;;;;;;;17.20;15.60;;;;;;;;;;5069864;28;24505;-48
2022/04/25 09:21:54;;;;;;;17.40;15.90;;;;;;;;;;5070870;28;24745;-48
2022/04/25 09:24:20;;;;;;;16.27;14.97;;;;;;;;;;5070586;28;24909;-49
2022/04/25 09:26:46;;;;;;;17.65;15.95;;;;;;;;;;5080507;28;24951;-48
2022/04/25 09:29:11;;;;;;;16.23;14.73;;;;;;;;;;5090607;28;24542;-48
2022/04/25 09:31:46;;;;;;;17.20;15.70;;;;;;;;;;5091041;28;24406;-48
2022/04/25 09:34:15;;;;;;;19.20;17.30;;;;;;;;;;5090709;28;24969;-48
2022/04/25 09:36:47;;;;;;;16.63;15.23;;;;;;;;;;5085122;28;24956;-48
2022/04/25 09:39:30;;;;;;;18.77;16.98;;;;;;;;;;5069897;28;24383;-48
2022/04/25 09:41:55;;;;;;;19.08;17.40;;;;;;;;;;5070348;28;24710;-48
2022/04/25 09:44:20;;;;;;;19.07;17.27;;;;;;;;;;5070443;28;24394;-48
2022/04/25 09:46:46;;;;;;;19.13;17.42;;;;;;;;;;5071310;28;25074;-48
2022/04/25 09:49:17;;;;;;;19.77;17.97;;;;;;;;;;5070072;28;24933;-48
2022/04/25 09:51:57;;;;;;;18.92;17.00;;;;;;;;;;5070322;28;24857;-48
2022/04/25 09:54:23;;;;;;;19.00;17.23;;;;;;;;;;5069830;28;24409;-48
2022/04/25 09:56:48;;;;;;;20.83;18.93;;;;;;;;;;5070047;28;24438;-48
2022/04/25 09:59:14;;;;;;;23.00;20.70;;;;;;;;;;5070644;28;24996;-48
2022/04/25 10:01:40;;;;;;;24.15;21.75;;;;;;;;;;5070286;28;24484;-49
2022/04/25 10:04:24;;;;;;;24.23;22.03;;;;;;;;;;5069780;28;24957;-48
2022/04/25 10:06:50;;;;;;;26.88;24.27;;;;;;;;;;5070035;28;24427;-49
2022/04/25 10:09:16;;;;;;;25.43;22.90;;;;;;;;;;5070863;28;24453;-48
2022/04/25 10:11:42;;;;;;;24.65;22.25;;;;;;;;;;5069750;28;24674;-48
2022/04/25 10:14:07;;;;;;;25.08;22.58;;;;;;;;;;5069716;28;25253;-48
2022/04/25 10:16:34;;;;;;;24.57;22.07;;;;;;;;;;5069928;28;24427;-49
2022/04/25 10:18:59;;;;;;;24.73;22.23;;;;;;;;;;5076308;28;24414;-49
2022/04/25 10:21:25;;;;;;;23.90;21.50;;;;;;;;;;5088901;28;24405;-48
2022/04/25 10:23:50;;;;;;;21.20;19.30;;;;;;;;;;5089669;28;24406;-48
2022/04/25 10:26:15;;;;;;;23.40;21.23;;;;;;;;;;5077796;28;24414;-48
2022/04/25 10:28:46;;;;;;;22.97;20.80;;;;;;;;;;5074536;28;25243;-48
2022/04/25 10:31:20;;;;;;;22.60;20.50;;;;;;;;;;5089924;28;24378;-49
2022/04/25 10:33:49;;;;;;;23.17;20.98;;;;;;;;;;5089537;28;24936;-48
2022/04/25 10:36:33;;;;;;;22.17;20.08;;;;;;;;;;5089260;28;24438;-48
2022/04/25 10:39:12;;;;;;;21.35;19.42;;;;;;;;;;5089661;28;24413;-48
2022/04/25 10:44:23;;;;;;;19.17;17.38;;;;;;;;;;5089300;28;24425;-48
2022/04/25 10:47:04;;;;;;;20.52;18.63;;;;;;;;;;5089477;28;24414;-48
2022/04/25 10:49:35;;;;;;;18.92;17.23;;;;;;;;;;5088944;28;25016;-48
2022/04/25 10:52:02;;;;;;;19.00;17.20;;;;;;;;;;5089439;28;24394;-48
2022/04/25 10:54:45;;;;;;;19.63;17.73;;;;;;;;;;5088570;28;24446;-49
2022/04/25 10:57:11;;;;;;;18.80;17.00;;;;;;;;;;5089312;28;24417;-48
2022/04/25 10:59:39;;;;;;;16.23;14.73;;;;;;;;;;5088923;28;24399;-48
2022/04/25 11:02:21;;;;;;;16.20;14.73;;;;;;;;;;5089160;28;24386;-48
2022/04/25 11:04:46;;;;;;;16.55;15.02;;;;;;;;;;5088698;28;24406;-49
2022/04/25 11:07:22;;;;;;;15.23;13.93;;;;;;;;;;5088408;28;24735;-49
2022/04/25 11:09:48;;;;;;;15.60;14.30;;;;;;;;;;5088875;28;24425;-48
2022/04/25 11:12:13;;;;;;;13.20;12.00;;;;;;;;;;5088802;28;24425;-48
2022/04/25 11:14:55;;;;;;;15.50;14.07;;;;;;;;;;5088348;28;24506;-48
2022/04/25 11:17:20;;;;;;;16.20;14.80;;;;;;;;;;5088823;28;24420;-48
2022/04/25 11:19:48;;;;;;;15.00;13.80;;;;;;;;;;5088530;28;24840;-49
2022/04/25 11:22:32;;;;;;;15.60;14.10;;;;;;;;;;5088666;28;24383;-48
2022/04/25 11:25:17;;;;;;;14.75;13.45;;;;;;;;;;5086551;28;24414;-48
2022/04/25 11:28:02;;;;;;;14.40;13.20;;;;;;;;;;5088499;28;24997;-48
2022/04/25 11:30:27;;;;;;;13.55;12.43;;;;;;;;;;5087958;28;24399;-48
2022/04/25 11:32:52;;;;;;;12.95;11.85;;;;;;;;;;5088343;28;24397;-48
2022/04/25 11:35:22;;;;;;;13.50;12.40;;;;;;;;;;5087927;28;24971;-49
2022/04/25 11:37:48;;;;;;;11.70;10.77;;;;;;;;;;5088269;28;24475;-48
2022/04/25 11:40:14;;;;;;;13.63;12.32;;;;;;;;;;5086462;28;20756;-49
2022/04/25 11:42:40;;;;;;;11.48;10.48;;;;;;;;;;5088384;28;25007;-47
2022/04/25 11:45:05;;;;;;;11.25;10.35;;;;;;;;;;5088092;28;24988;-47
2022/04/25 11:47:31;;;;;;;11.70;10.70;;;;;;;;;;5087840;28;24468;-47
2022/04/25 11:49:57;;;;;;;11.80;10.80;;;;;;;;;;5088105;28;24400;-47
2022/04/25 11:52:22;;;;;;;13.20;12.10;;;;;;;;;;5088004;28;24931;-47
2022/04/25 11:54:48;;;;;;;12.98;11.75;;;;;;;;;;5087970;28;24478;-46
2022/04/25 11:57:13;;;;;;;13.20;12.10;;;;;;;;;;5087576;28;24422;-47
2022/04/25 11:59:38;;;;;;;10.88;10.07;;;;;;;;;;5088003;28;24752;-46
2022/04/25 12:02:03;;;;;;;12.45;11.45;;;;;;;;;;5088234;28;24813;-46
2022/04/25 12:04:29;;;;;;;10.68;9.77;;;;;;;;;;5087442;28;24397;-47
2022/04/25 12:06:56;;;;;;;9.70;8.90;;;;;;;;;;5087607;28;24433;-46
2022/04/25 12:17:36;;;;;;;9.27;8.37;;;;;;;;;;5086879;28;24429;-46
2022/04/25 12:20:04;;;;;;;9.17;8.37;;;;;;;;;;5087595;28;24500;-46
2022/04/25 12:22:29;;;;;;;10.45;9.60;;;;;;;;;;5087441;28;24395;-46
2022/04/25 12:25:10;;;;;;;10.80;9.90;;;;;;;;;;5087810;28;24401;-46
2022/04/25 12:27:35;;;;;;;10.82;9.82;;;;;;;;;;5087022;28;24489;-46
2022/04/25 12:30:07;;;;;;;10.33;9.33;;;;;;;;;;5086298;28;24533;-47
2022/04/25 12:32:32;;;;;;;9.77;8.88;;;;;;;;;;5087515;28;24414;-47
2022/04/25 12:34:57;;;;;;;9.02;8.23;;;;;;;;;;5087558;28;24819;-47
2022/04/25 12:37:22;;;;;;;9.80;8.90;;;;;;;;;;5087397;28;24484;-47
2022/04/25 12:40:01;;;;;;;9.90;8.90;;;;;;;;;;5087207;28;24416;-47
2022/04/25 12:42:43;;;;;;;8.82;8.02;;;;;;;;;;5086832;28;24426;-47
2022/04/25 12:45:08;;;;;;;9.88;9.15;;;;;;;;;;5086623;28;24498;-47
2022/04/25 12:47:33;;;;;;;8.65;7.75;;;;;;;;;;5087174;28;24493;-47
2022/04/25 12:50:01;;;;;;;9.43;8.00;;;;;;;;;;5087477;28;24737;-47
2022/04/25 12:52:26;;;;;;;10.30;9.30;;;;;;;;;;5086305;28;24417;-47
2022/04/25 12:54:52;;;;;;;9.40;8.60;;;;;;;;;;5087199;28;24485;-47
2022/04/25 12:57:22;;;;;;;11.00;10.10;;;;;;;;;;5087486;28;24413;-46
2022/04/25 12:59:53;;;;;;;10.20;9.20;;;;;;;;;;5084822;28;24412;-46
2022/04/25 13:02:39;;;;;;;9.20;8.40;;;;;;;;;;5085146;28;24410;-47
2022/04/25 13:05:06;;;;;;;9.77;8.98;;;;;;;;;;5086908;28;24941;-47
2022/04/25 13:07:37;;;;;;;11.55;10.55;;;;;;;;;;5086845;28;24398;-47
2022/04/25 13:10:03;;;;;;;10.90;9.95;;;;;;;;;;5086987;28;24402;-47
2022/04/25 13:12:34;;;;;;;12.40;11.30;;;;;;;;;;5086756;28;24407;-48
2022/04/25 13:15:00;;;;;;;10.93;9.98;;;;;;;;;;5087464;28;24412;-47
2022/04/25 13:17:25;;;;;;;12.60;11.30;;;;;;;;;;5086664;28;24513;-48
2022/04/25 13:19:51;;;;;;;11.40;10.30;;;;;;;;;;5083030;28;24530;-47
2022/04/25 13:22:16;;;;;;;12.77;11.67;;;;;;;;;;5087042;28;24790;-47
2022/04/25 13:24:41;;;;;;;11.38;10.10;;;;;;;;;;5086775;28;24991;-47
2022/04/25 13:27:06;;;;;;;10.85;9.95;;;;;;;;;;5085939;28;24959;-47
2022/04/25 13:29:32;;;;;;;9.80;8.90;;;;;;;;;;5086772;28;24476;-47
2022/04/25 13:31:57;;;;;;;11.18;10.13;;;;;;;;;;5086910;28;24401;-47
2022/04/25 13:34:23;;;;;;;10.83;9.83;;;;;;;;;;5084832;28;24421;-47
2022/04/25 13:36:48;;;;;;;9.75;8.85;;;;;;;;;;5083885;28;24525;-48
2022/04/25 13:39:13;;;;;;;10.90;9.90;;;;;;;;;;5086232;28;24433;-48
2022/04/25 13:41:38;;;;;;;9.30;8.50;;;;;;;;;;5086186;28;24478;-48
2022/04/25 13:44:05;;;;;;;10.73;9.73;;;;;;;;;;5086750;28;24749;-47
2022/04/25 13:46:31;;;;;;;9.47;8.67;;;;;;;;;;5084290;28;24429;-48
2022/04/25 13:48:57;;;;;;;9.35;8.55;;;;;;;;;;5075562;28;24418;-47
2022/04/25 13:51:22;;;;;;;9.07;8.27;;;;;;;;;;5080761;28;25007;-48
2022/04/25 13:53:47;;;;;;;10.47;9.57;;;;;;;;;;5081400;28;24498;-48
2022/04/25 13:56:12;;;;;;;9.38;8.57;;;;;;;;;;5082185;28;24982;-48
2022/04/25 13:58:38;;;;;;;9.93;9.02;;;;;;;;;;5087281;28;24425;-48
2022/04/25 14:01:04;;;;;;;11.43;10.43;;;;;;;;;;5088721;28;24797;-48
2022/04/25 14:03:29;;;;;;;11.68;10.68;;;;;;;;;;5087276;28;24525;-48
2022/04/25 14:05:55;;;;;;;10.60;9.60;;;;;;;;;;5086526;28;24983;-48
2022/04/25 14:08:21;;;;;;;11.10;10.13;;;;;;;;;;5086302;28;24468;-46
2022/04/25 14:10:46;;;;;;;10.52;9.55;;;;;;;;;;5082928;28;24464;-47
2022/04/25 14:13:12;;;;;;;10.20;9.30;;;;;;;;;;5072160;28;24422;-47
2022/04/25 14:15:38;;;;;;;10.52;9.63;;;;;;;;;;5089436;28;24386;-47
2022/04/25 14:18:04;;;;;;;11.07;10.10;;;;;;;;;;5090311;28;24406;-47
2022/04/25 14:20:30;;;;;;;10.90;10.00;;;;;;;;;;5085991;28;24418;-47
2022/04/25 14:22:56;;;;;;;9.70;8.90;;;;;;;;;;5088525;28;24425;-47
2022/04/25 14:25:21;;;;;;;11.37;10.37;;;;;;;;;;5087467;28;24470;-47
2022/04/25 14:27:46;;;;;;;9.70;8.88;;;;;;;;;;5089596;28;24394;-47
2022/04/25 14:30:11;;;;;;;9.60;8.80;;;;;;;;;;5089552;28;24509;-48
2022/04/25 14:32:37;;;;;;;10.10;9.20;;;;;;;;;;5088215;28;24429;-47
2022/04/25 14:35:03;;;;;;;10.98;9.88;;;;;;;;;;5087894;28;24422;-47
2022/04/25 14:37:28;;;;;;;11.20;9.98;;;;;;;;;;5089028;28;25093;-47
2022/04/25 14:39:53;;;;;;;9.05;8.25;;;;;;;;;;5088438;28;24485;-48
2022/04/25 14:42:18;;;;;;;10.23;9.13;;;;;;;;;;5088563;28;24473;-47
2022/04/25 14:44:44;;;;;;;8.90;8.10;;;;;;;;;;5089117;28;24398;-47
2022/04/25 14:47:09;;;;;;;10.45;9.45;;;;;;;;;;5089511;28;24456;-48
2022/04/25 14:55:02;;;;;;;5.83;5.33;;;;;;;;;;5088230;28;24498;-47
2022/04/25 14:57:27;;;;;;;5.00;4.60;;;;;;;;;;5088609;28;24914;-47
2022/04/25 14:59:52;;;;;;;4.80;4.40;;;;;;;;;;5087374;28;24402;-48
2022/04/25 15:02:18;;;;;;;4.87;4.30;;;;;;;;;;5085960;28;25387;-47